sensor_id;sensor_type;location;lat;lon;timestamp;P1;durP1;ratioP1;P2;durP2;ratioP2
43919;SDS011;29578;51.946;5.874;2023-09-19T00:13:39;1.63;;;0.50;;
43919;SDS011;29578;51.946;5.874;2023-09-19T00:16:09;0.85;;;0.35;;
43919;SDS011;29578;51.946;5.874;2023-09-19T00:18:36;1.25;;;0.57;;
43919;SDS011;29578;51.946;5.874;2023-09-19T00:21:03;1.08;;;0.50;;
43919;SDS011;29578;51.946;5.874;2023-09-19T00:23:30;2.45;;;0.68;;
43919;SDS011;29578;51.946;5.874;2023-09-19T00:25:58;0.40;;;0.35;;
43919;SDS011;29578;51.946;5.874;2023-09-19T00:28:24;1.65;;;0.55;;
43919;SDS011;29578;51.946;5.874;2023-09-19T00:30:51;0.80;;;0.55;;
43919;SDS011;29578;51.946;5.874;2023-09-19T00:33:17;1.55;;;0.60;;
43919;SDS011;29578;51.946;5.874;2023-09-19T00:35:48;0.88;;;0.50;;
43919;SDS011;29578;51.946;5.874;2023-09-19T00:38:14;1.25;;;0.55;;
43919;SDS011;29578;51.946;5.874;2023-09-19T00:40:44;1.48;;;0.70;;
43919;SDS011;29578;51.946;5.874;2023-09-19T00:43:10;1.55;;;0.40;;
43919;SDS011;29578;51.946;5.874;2023-09-19T00:45:36;2.05;;;0.52;;
43919;SDS011;29578;51.946;5.874;2023-09-19T00:48:04;0.73;;;0.50;;
43919;SDS011;29578;51.946;5.874;2023-09-19T00:50:34;0.45;;;0.40;;
43919;SDS011;29578;51.946;5.874;2023-09-19T00:53:01;2.38;;;0.60;;
43919;SDS011;29578;51.946;5.874;2023-09-19T00:55:33;1.30;;;0.60;;
43919;SDS011;29578;51.946;5.874;2023-09-19T00:57:59;0.98;;;0.60;;
43919;SDS011;29578;51.946;5.874;2023-09-19T01:00:25;2.13;;;0.50;;
43919;SDS011;29578;51.946;5.874;2023-09-19T01:02:52;1.23;;;0.60;;
43919;SDS011;29578;51.946;5.874;2023-09-19T01:05:17;1.00;;;0.60;;
43919;SDS011;29578;51.946;5.874;2023-09-19T01:07:43;2.38;;;0.70;;
43919;SDS011;29578;51.946;5.874;2023-09-19T01:10:11;0.70;;;0.60;;
43919;SDS011;29578;51.946;5.874;2023-09-19T01:12:45;1.10;;;0.68;;
43919;SDS011;29578;51.946;5.874;2023-09-19T01:24:10;0.85;;;0.50;;
43919;SDS011;29578;51.946;5.874;2023-09-19T01:27:17;1.00;;;0.60;;
43919;SDS011;29578;51.946;5.874;2023-09-19T01:30:07;0.82;;;0.50;;
43919;SDS011;29578;51.946;5.874;2023-09-19T01:32:35;1.20;;;0.73;;
43919;SDS011;29578;51.946;5.874;2023-09-19T01:35:03;1.73;;;0.70;;
43919;SDS011;29578;51.946;5.874;2023-09-19T01:37:29;2.22;;;0.80;;
43919;SDS011;29578;51.946;5.874;2023-09-19T01:39:59;1.88;;;0.70;;
43919;SDS011;29578;51.946;5.874;2023-09-19T01:42:44;1.13;;;0.60;;
43919;SDS011;29578;51.946;5.874;2023-09-19T01:48:34;1.10;;;0.50;;
43919;SDS011;29578;51.946;5.874;2023-09-19T01:51:19;1.20;;;0.65;;
43919;SDS011;29578;51.946;5.874;2023-09-19T01:53:51;2.80;;;0.70;;
43919;SDS011;29578;51.946;5.874;2023-09-19T01:56:29;2.45;;;0.80;;
43919;SDS011;29578;51.946;5.874;2023-09-19T01:59:07;1.73;;;0.70;;
43919;SDS011;29578;51.946;5.874;2023-09-19T02:01:37;1.23;;;0.60;;
43919;SDS011;29578;51.946;5.874;2023-09-19T02:04:03;1.45;;;0.60;;
43919;SDS011;29578;51.946;5.874;2023-09-19T02:06:29;0.80;;;0.60;;
43919;SDS011;29578;51.946;5.874;2023-09-19T02:08:55;1.52;;;0.73;;
43919;SDS011;29578;51.946;5.874;2023-09-19T02:11:21;0.98;;;0.65;;
43919;SDS011;29578;51.946;5.874;2023-09-19T02:13:46;1.42;;;0.65;;
43919;SDS011;29578;51.946;5.874;2023-09-19T02:16:12;2.08;;;0.77;;
43919;SDS011;29578;51.946;5.874;2023-09-19T02:18:42;2.42;;;0.57;;
43919;SDS011;29578;51.946;5.874;2023-09-19T02:21:07;2.75;;;0.65;;
43919;SDS011;29578;51.946;5.874;2023-09-19T02:23:35;2.80;;;0.82;;
43919;SDS011;29578;51.946;5.874;2023-09-19T02:26:00;1.25;;;0.55;;
43919;SDS011;29578;51.946;5.874;2023-09-19T02:28:30;1.88;;;0.80;;
43919;SDS011;29578;51.946;5.874;2023-09-19T02:30:57;0.98;;;0.55;;
43919;SDS011;29578;51.946;5.874;2023-09-19T02:33:23;1.23;;;0.55;;
43919;SDS011;29578;51.946;5.874;2023-09-19T02:35:49;1.98;;;0.73;;
43919;SDS011;29578;51.946;5.874;2023-09-19T02:38:15;1.83;;;0.57;;
43919;SDS011;29578;51.946;5.874;2023-09-19T02:40:46;1.52;;;0.60;;
43919;SDS011;29578;51.946;5.874;2023-09-19T02:43:11;2.17;;;0.65;;
43919;SDS011;29578;51.946;5.874;2023-09-19T02:45:37;1.00;;;0.50;;
43919;SDS011;29578;51.946;5.874;2023-09-19T02:48:04;1.63;;;0.70;;
43919;SDS011;29578;51.946;5.874;2023-09-19T02:50:29;1.38;;;0.60;;
43919;SDS011;29578;51.946;5.874;2023-09-19T02:52:55;1.40;;;0.68;;
43919;SDS011;29578;51.946;5.874;2023-09-19T02:55:21;0.82;;;0.60;;
43919;SDS011;29578;51.946;5.874;2023-09-19T02:57:47;0.85;;;0.50;;
43919;SDS011;29578;51.946;5.874;2023-09-19T03:00:14;1.60;;;0.70;;
43919;SDS011;29578;51.946;5.874;2023-09-19T03:02:41;1.25;;;0.50;;
43919;SDS011;29578;51.946;5.874;2023-09-19T03:05:08;2.17;;;0.60;;
43919;SDS011;29578;51.946;5.874;2023-09-19T03:07:44;1.48;;;0.60;;
43919;SDS011;29578;51.946;5.874;2023-09-19T03:10:12;0.65;;;0.55;;
43919;SDS011;29578;51.946;5.874;2023-09-19T03:12:40;1.65;;;0.52;;
43919;SDS011;29578;51.946;5.874;2023-09-19T03:15:06;0.68;;;0.50;;
43919;SDS011;29578;51.946;5.874;2023-09-19T03:17:33;1.60;;;0.65;;
43919;SDS011;29578;51.946;5.874;2023-09-19T03:20:00;2.25;;;0.63;;
43919;SDS011;29578;51.946;5.874;2023-09-19T03:22:27;2.00;;;0.70;;
43919;SDS011;29578;51.946;5.874;2023-09-19T03:24:53;0.55;;;0.50;;
43919;SDS011;29578;51.946;5.874;2023-09-19T03:27:19;1.08;;;0.70;;
43919;SDS011;29578;51.946;5.874;2023-09-19T03:29:46;0.80;;;0.65;;
43919;SDS011;29578;51.946;5.874;2023-09-19T03:32:12;1.65;;;0.65;;
43919;SDS011;29578;51.946;5.874;2023-09-19T03:34:38;2.10;;;0.55;;
43919;SDS011;29578;51.946;5.874;2023-09-19T03:37:07;1.20;;;0.77;;
43919;SDS011;29578;51.946;5.874;2023-09-19T03:39:33;3.25;;;0.93;;
43919;SDS011;29578;51.946;5.874;2023-09-19T03:41:59;2.80;;;0.80;;
43919;SDS011;29578;51.946;5.874;2023-09-19T03:44:25;1.05;;;0.60;;
43919;SDS011;29578;51.946;5.874;2023-09-19T03:46:51;2.42;;;0.60;;
43919;SDS011;29578;51.946;5.874;2023-09-19T03:49:17;0.82;;;0.55;;
43919;SDS011;29578;51.946;5.874;2023-09-19T03:51:42;1.52;;;0.68;;
43919;SDS011;29578;51.946;5.874;2023-09-19T03:54:08;2.30;;;0.60;;
43919;SDS011;29578;51.946;5.874;2023-09-19T03:56:34;1.38;;;0.50;;
43919;SDS011;29578;51.946;5.874;2023-09-19T03:59:00;2.10;;;0.70;;
43919;SDS011;29578;51.946;5.874;2023-09-19T04:01:25;0.82;;;0.70;;
43919;SDS011;29578;51.946;5.874;2023-09-19T04:03:53;4.20;;;0.90;;
43919;SDS011;29578;51.946;5.874;2023-09-19T04:06:18;3.13;;;0.80;;
43919;SDS011;29578;51.946;5.874;2023-09-19T04:08:44;0.70;;;0.40;;
43919;SDS011;29578;51.946;5.874;2023-09-19T04:11:12;1.77;;;0.60;;
43919;SDS011;29578;51.946;5.874;2023-09-19T04:13:38;1.38;;;0.60;;
43919;SDS011;29578;51.946;5.874;2023-09-19T04:16:03;1.33;;;0.60;;
43919;SDS011;29578;51.946;5.874;2023-09-19T04:18:30;1.30;;;0.68;;
43919;SDS011;29578;51.946;5.874;2023-09-19T04:20:58;1.42;;;0.70;;
43919;SDS011;29578;51.946;5.874;2023-09-19T04:23:27;3.10;;;0.95;;
43919;SDS011;29578;51.946;5.874;2023-09-19T04:25:53;1.77;;;0.70;;
43919;SDS011;29578;51.946;5.874;2023-09-19T04:28:19;1.23;;;0.80;;
43919;SDS011;29578;51.946;5.874;2023-09-19T04:30:45;2.08;;;0.40;;
43919;SDS011;29578;51.946;5.874;2023-09-19T04:33:11;0.60;;;0.50;;
43919;SDS011;29578;51.946;5.874;2023-09-19T04:35:39;1.13;;;0.50;;
43919;SDS011;29578;51.946;5.874;2023-09-19T04:38:07;1.30;;;0.57;;
43919;SDS011;29578;51.946;5.874;2023-09-19T04:40:33;1.77;;;0.43;;
43919;SDS011;29578;51.946;5.874;2023-09-19T04:42:59;1.60;;;0.70;;
43919;SDS011;29578;51.946;5.874;2023-09-19T04:45:26;0.50;;;0.50;;
43919;SDS011;29578;51.946;5.874;2023-09-19T04:47:53;4.35;;;0.95;;
43919;SDS011;29578;51.946;5.874;2023-09-19T04:50:19;0.93;;;0.50;;
43919;SDS011;29578;51.946;5.874;2023-09-19T04:52:49;2.33;;;0.68;;
43919;SDS011;29578;51.946;5.874;2023-09-19T04:55:16;2.08;;;0.60;;
43919;SDS011;29578;51.946;5.874;2023-09-19T04:57:47;1.90;;;0.82;;
43919;SDS011;29578;51.946;5.874;2023-09-19T05:02:42;1.90;;;0.50;;
43919;SDS011;29578;51.946;5.874;2023-09-19T05:05:08;1.20;;;0.60;;
43919;SDS011;29578;51.946;5.874;2023-09-19T05:07:36;0.70;;;0.50;;
43919;SDS011;29578;51.946;5.874;2023-09-19T05:10:02;2.00;;;0.60;;
43919;SDS011;29578;51.946;5.874;2023-09-19T05:12:33;1.02;;;0.45;;
43919;SDS011;29578;51.946;5.874;2023-09-19T05:15:00;0.90;;;0.60;;
43919;SDS011;29578;51.946;5.874;2023-09-19T05:17:30;2.42;;;0.60;;
43919;SDS011;29578;51.946;5.874;2023-09-19T05:19:56;1.38;;;0.70;;
43919;SDS011;29578;51.946;5.874;2023-09-19T05:22:24;0.98;;;0.45;;
43919;SDS011;29578;51.946;5.874;2023-09-19T05:24:52;0.70;;;0.43;;
43919;SDS011;29578;51.946;5.874;2023-09-19T05:27:18;4.05;;;0.70;;
43919;SDS011;29578;51.946;5.874;2023-09-19T05:29:46;0.90;;;0.55;;
43919;SDS011;29578;51.946;5.874;2023-09-19T05:32:11;1.92;;;0.55;;
43919;SDS011;29578;51.946;5.874;2023-09-19T05:34:38;1.50;;;0.60;;
43919;SDS011;29578;51.946;5.874;2023-09-19T05:37:04;1.00;;;0.40;;
43919;SDS011;29578;51.946;5.874;2023-09-19T05:39:32;1.65;;;0.57;;
43919;SDS011;29578;51.946;5.874;2023-09-19T05:41:58;1.52;;;0.60;;
43919;SDS011;29578;51.946;5.874;2023-09-19T05:44:25;3.97;;;0.93;;
43919;SDS011;29578;51.946;5.874;2023-09-19T05:46:51;1.65;;;0.50;;
43919;SDS011;29578;51.946;5.874;2023-09-19T05:49:17;3.60;;;0.65;;
43919;SDS011;29578;51.946;5.874;2023-09-19T05:51:43;1.70;;;0.60;;
43919;SDS011;29578;51.946;5.874;2023-09-19T05:54:09;1.00;;;0.60;;
43919;SDS011;29578;51.946;5.874;2023-09-19T05:56:36;2.92;;;0.82;;
43919;SDS011;29578;51.946;5.874;2023-09-19T05:59:02;1.77;;;0.70;;
43919;SDS011;29578;51.946;5.874;2023-09-19T06:01:29;0.80;;;0.45;;
43919;SDS011;29578;51.946;5.874;2023-09-19T06:03:57;0.50;;;0.40;;
43919;SDS011;29578;51.946;5.874;2023-09-19T06:06:25;1.02;;;0.50;;
43919;SDS011;29578;51.946;5.874;2023-09-19T06:08:51;1.45;;;0.65;;
43919;SDS011;29578;51.946;5.874;2023-09-19T06:11:17;1.55;;;0.63;;
43919;SDS011;29578;51.946;5.874;2023-09-19T06:13:45;2.80;;;0.75;;
43919;SDS011;29578;51.946;5.874;2023-09-19T06:16:12;0.77;;;0.50;;
43919;SDS011;29578;51.946;5.874;2023-09-19T06:18:38;3.05;;;0.70;;
43919;SDS011;29578;51.946;5.874;2023-09-19T06:21:04;1.00;;;0.50;;
43919;SDS011;29578;51.946;5.874;2023-09-19T06:23:33;1.08;;;0.63;;
43919;SDS011;29578;51.946;5.874;2023-09-19T06:26:00;2.13;;;0.57;;
43919;SDS011;29578;51.946;5.874;2023-09-19T06:34:11;1.88;;;0.60;;
43919;SDS011;29578;51.946;5.874;2023-09-19T06:36:39;1.60;;;0.63;;
43919;SDS011;29578;51.946;5.874;2023-09-19T06:39:06;1.33;;;0.43;;
43919;SDS011;29578;51.946;5.874;2023-09-19T06:41:34;2.13;;;0.82;;
43919;SDS011;29578;51.946;5.874;2023-09-19T06:46:51;2.22;;;0.90;;
43919;SDS011;29578;51.946;5.874;2023-09-19T06:49:20;1.45;;;0.50;;
43919;SDS011;29578;51.946;5.874;2023-09-19T06:55:03;1.13;;;0.60;;
43919;SDS011;29578;51.946;5.874;2023-09-19T06:57:36;1.75;;;0.75;;
43919;SDS011;29578;51.946;5.874;2023-09-19T07:00:02;1.50;;;0.50;;
43919;SDS011;29578;51.946;5.874;2023-09-19T07:02:34;1.80;;;0.77;;
43919;SDS011;29578;51.946;5.874;2023-09-19T07:05:03;1.98;;;0.73;;
43919;SDS011;29578;51.946;5.874;2023-09-19T07:07:32;2.22;;;0.70;;
43919;SDS011;29578;51.946;5.874;2023-09-19T07:10:00;2.03;;;0.70;;
43919;SDS011;29578;51.946;5.874;2023-09-19T07:19:43;1.00;;;0.52;;
43919;SDS011;29578;51.946;5.874;2023-09-19T07:22:43;2.38;;;0.90;;
43919;SDS011;29578;51.946;5.874;2023-09-19T07:25:13;1.88;;;0.77;;
43919;SDS011;29578;51.946;5.874;2023-09-19T07:31:07;1.63;;;0.80;;
43919;SDS011;29578;51.946;5.874;2023-09-19T07:59:32;0.88;;;0.80;;
43919;SDS011;29578;51.946;5.874;2023-09-19T08:20:10;2.80;;;0.63;;
43919;SDS011;29578;51.946;5.874;2023-09-19T08:22:51;2.85;;;0.80;;
43919;SDS011;29578;51.946;5.874;2023-09-19T08:25:41;2.28;;;0.80;;
43919;SDS011;29578;51.946;5.874;2023-09-19T08:28:20;2.70;;;0.90;;
43919;SDS011;29578;51.946;5.874;2023-09-19T08:30:55;3.58;;;1.17;;
43919;SDS011;29578;51.946;5.874;2023-09-19T08:40:36;2.08;;;0.75;;
43919;SDS011;29578;51.946;5.874;2023-09-19T08:46:36;2.08;;;0.80;;
43919;SDS011;29578;51.946;5.874;2023-09-19T08:50:08;1.40;;;0.68;;
43919;SDS011;29578;51.946;5.874;2023-09-19T08:56:08;3.45;;;1.20;;
43919;SDS011;29578;51.946;5.874;2023-09-19T08:58:53;1.90;;;0.82;;
43919;SDS011;29578;51.946;5.874;2023-09-19T09:01:53;3.70;;;1.30;;
43919;SDS011;29578;51.946;5.874;2023-09-19T09:04:35;3.97;;;1.00;;
43919;SDS011;29578;51.946;5.874;2023-09-19T09:07:14;2.95;;;0.93;;
43919;SDS011;29578;51.946;5.874;2023-09-19T09:13:25;3.00;;;0.90;;
43919;SDS011;29578;51.946;5.874;2023-09-19T09:19:53;4.40;;;1.17;;
43919;SDS011;29578;51.946;5.874;2023-09-19T09:32:23;2.10;;;0.90;;
43919;SDS011;29578;51.946;5.874;2023-09-19T09:35:02;3.60;;;0.98;;
43919;SDS011;29578;51.946;5.874;2023-09-19T09:37:38;3.53;;;0.90;;
43919;SDS011;29578;51.946;5.874;2023-09-19T09:40:52;2.10;;;0.80;;
43919;SDS011;29578;51.946;5.874;2023-09-19T09:43:35;2.08;;;0.90;;
43919;SDS011;29578;51.946;5.874;2023-09-19T09:46:08;2.65;;;0.93;;
43919;SDS011;29578;51.946;5.874;2023-09-19T09:48:58;1.75;;;0.93;;
43919;SDS011;29578;51.946;5.874;2023-09-19T09:51:45;3.03;;;1.00;;
43919;SDS011;29578;51.946;5.874;2023-09-19T09:54:23;3.45;;;1.05;;
43919;SDS011;29578;51.946;5.874;2023-09-19T09:57:01;3.00;;;0.88;;
43919;SDS011;29578;51.946;5.874;2023-09-19T10:03:31;2.75;;;1.17;;
43919;SDS011;29578;51.946;5.874;2023-09-19T10:06:12;2.35;;;1.13;;
43919;SDS011;29578;51.946;5.874;2023-09-19T10:09:17;2.65;;;1.10;;
43919;SDS011;29578;51.946;5.874;2023-09-19T10:12:00;2.92;;;1.00;;
43919;SDS011;29578;51.946;5.874;2023-09-19T10:14:38;2.58;;;1.00;;
43919;SDS011;29578;51.946;5.874;2023-09-19T10:26:26;2.53;;;1.05;;
43919;SDS011;29578;51.946;5.874;2023-09-19T10:28:58;3.45;;;1.00;;
43919;SDS011;29578;51.946;5.874;2023-09-19T10:31:35;2.97;;;0.85;;
43919;SDS011;29578;51.946;5.874;2023-09-19T10:44:48;4.03;;;1.17;;
43919;SDS011;29578;51.946;5.874;2023-09-19T10:47:43;2.65;;;1.25;;
43919;SDS011;29578;51.946;5.874;2023-09-19T10:50:19;4.35;;;1.27;;
43919;SDS011;29578;51.946;5.874;2023-09-19T10:52:49;5.55;;;1.40;;
43919;SDS011;29578;51.946;5.874;2023-09-19T10:55:33;3.83;;;1.42;;
43919;SDS011;29578;51.946;5.874;2023-09-19T10:58:28;2.97;;;0.98;;
43919;SDS011;29578;51.946;5.874;2023-09-19T11:04:48;3.72;;;1.02;;
43919;SDS011;29578;51.946;5.874;2023-09-19T11:07:15;3.03;;;1.05;;
43919;SDS011;29578;51.946;5.874;2023-09-19T11:10:06;4.15;;;1.30;;
43919;SDS011;29578;51.946;5.874;2023-09-19T11:16:34;3.65;;;1.30;;
43919;SDS011;29578;51.946;5.874;2023-09-19T11:28:58;2.17;;;1.13;;
43919;SDS011;29578;51.946;5.874;2023-09-19T11:32:02;3.75;;;1.27;;
43919;SDS011;29578;51.946;5.874;2023-09-19T11:38:02;1.83;;;0.88;;
43919;SDS011;29578;51.946;5.874;2023-09-19T11:40:34;3.05;;;1.10;;
43919;SDS011;29578;51.946;5.874;2023-09-19T11:43:30;1.92;;;1.00;;
43919;SDS011;29578;51.946;5.874;2023-09-19T11:46:02;2.20;;;1.00;;
43919;SDS011;29578;51.946;5.874;2023-09-19T11:53:53;2.58;;;1.00;;
43919;SDS011;29578;51.946;5.874;2023-09-19T11:56:22;2.15;;;1.00;;
43919;SDS011;29578;51.946;5.874;2023-09-19T11:58:51;1.70;;;0.80;;
43919;SDS011;29578;51.946;5.874;2023-09-19T12:01:27;2.67;;;0.93;;
43919;SDS011;29578;51.946;5.874;2023-09-19T12:04:01;3.28;;;1.10;;
43919;SDS011;29578;51.946;5.874;2023-09-19T12:06:29;2.15;;;1.00;;
43919;SDS011;29578;51.946;5.874;2023-09-19T12:09:11;1.75;;;0.80;;
43919;SDS011;29578;51.946;5.874;2023-09-19T12:11:59;3.55;;;1.25;;
43919;SDS011;29578;51.946;5.874;2023-09-19T12:14:27;1.83;;;1.00;;
43919;SDS011;29578;51.946;5.874;2023-09-19T12:16:59;1.13;;;0.75;;
43919;SDS011;29578;51.946;5.874;2023-09-19T12:19:28;0.93;;;0.70;;
43919;SDS011;29578;51.946;5.874;2023-09-19T12:21:57;1.40;;;0.80;;
43919;SDS011;29578;51.946;5.874;2023-09-19T12:24:29;2.70;;;1.10;;
43919;SDS011;29578;51.946;5.874;2023-09-19T12:27:01;3.80;;;1.00;;
43919;SDS011;29578;51.946;5.874;2023-09-19T12:29:32;1.75;;;1.00;;
43919;SDS011;29578;51.946;5.874;2023-09-19T12:32:09;2.88;;;0.98;;
43919;SDS011;29578;51.946;5.874;2023-09-19T12:34:36;3.28;;;0.98;;
43919;SDS011;29578;51.946;5.874;2023-09-19T12:37:34;1.60;;;0.90;;
43919;SDS011;29578;51.946;5.874;2023-09-19T12:40:05;2.72;;;0.85;;
43919;SDS011;29578;51.946;5.874;2023-09-19T12:42:42;2.60;;;0.70;;
43919;SDS011;29578;51.946;5.874;2023-09-19T12:45:10;1.50;;;0.80;;
43919;SDS011;29578;51.946;5.874;2023-09-19T12:47:38;1.13;;;0.60;;
43919;SDS011;29578;51.946;5.874;2023-09-19T12:52:55;2.38;;;0.73;;
43919;SDS011;29578;51.946;5.874;2023-09-19T12:57:55;1.55;;;0.63;;
43919;SDS011;29578;51.946;5.874;2023-09-19T13:00:38;1.00;;;0.68;;
43919;SDS011;29578;51.946;5.874;2023-09-19T13:03:11;1.38;;;0.70;;
43919;SDS011;29578;51.946;5.874;2023-09-19T13:05:58;1.15;;;0.80;;
43919;SDS011;29578;51.946;5.874;2023-09-19T13:08:27;2.53;;;0.75;;
43919;SDS011;29578;51.946;5.874;2023-09-19T13:11:00;2.30;;;0.60;;
43919;SDS011;29578;51.946;5.874;2023-09-19T13:13:48;0.82;;;0.65;;
43919;SDS011;29578;51.946;5.874;2023-09-19T13:19:46;2.35;;;0.90;;
43919;SDS011;29578;51.946;5.874;2023-09-19T13:25:07;2.17;;;0.80;;
43919;SDS011;29578;51.946;5.874;2023-09-19T13:27:38;1.92;;;0.80;;
43919;SDS011;29578;51.946;5.874;2023-09-19T13:30:06;1.25;;;0.63;;
43919;SDS011;29578;51.946;5.874;2023-09-19T13:32:34;2.22;;;0.80;;
43919;SDS011;29578;51.946;5.874;2023-09-19T13:35:03;1.73;;;0.43;;
43919;SDS011;29578;51.946;5.874;2023-09-19T13:44:45;1.20;;;0.47;;
43919;SDS011;29578;51.946;5.874;2023-09-19T13:48:12;3.92;;;0.60;;
43919;SDS011;29578;51.946;5.874;2023-09-19T13:54:03;1.02;;;0.40;;
43919;SDS011;29578;51.946;5.874;2023-09-19T13:56:34;2.65;;;0.73;;
43919;SDS011;29578;51.946;5.874;2023-09-19T13:59:02;2.90;;;0.68;;
43919;SDS011;29578;51.946;5.874;2023-09-19T14:01:31;3.42;;;0.60;;
43919;SDS011;29578;51.946;5.874;2023-09-19T14:04:11;2.10;;;0.70;;
43919;SDS011;29578;51.946;5.874;2023-09-19T14:06:46;0.50;;;0.50;;
43919;SDS011;29578;51.946;5.874;2023-09-19T14:09:14;0.63;;;0.40;;
43919;SDS011;29578;51.946;5.874;2023-09-19T14:11:44;1.80;;;0.70;;
43919;SDS011;29578;51.946;5.874;2023-09-19T14:14:12;1.65;;;0.60;;
43919;SDS011;29578;51.946;5.874;2023-09-19T14:17:00;0.70;;;0.55;;
43919;SDS011;29578;51.946;5.874;2023-09-19T14:19:34;1.75;;;0.60;;
43919;SDS011;29578;51.946;5.874;2023-09-19T14:25:24;1.30;;;0.52;;
43919;SDS011;29578;51.946;5.874;2023-09-19T14:27:53;0.88;;;0.70;;
43919;SDS011;29578;51.946;5.874;2023-09-19T14:30:22;1.45;;;0.43;;
43919;SDS011;29578;51.946;5.874;2023-09-19T14:32:48;2.13;;;0.63;;
43919;SDS011;29578;51.946;5.874;2023-09-19T14:35:17;1.35;;;0.57;;
43919;SDS011;29578;51.946;5.874;2023-09-19T14:37:57;0.85;;;0.50;;
43919;SDS011;29578;51.946;5.874;2023-09-19T14:41:00;1.00;;;0.55;;
43919;SDS011;29578;51.946;5.874;2023-09-19T14:43:40;3.72;;;0.90;;
43919;SDS011;29578;51.946;5.874;2023-09-19T14:48:39;0.57;;;0.47;;
43919;SDS011;29578;51.946;5.874;2023-09-19T14:51:08;1.13;;;0.52;;
43919;SDS011;29578;51.946;5.874;2023-09-19T14:53:39;1.25;;;0.50;;
43919;SDS011;29578;51.946;5.874;2023-09-19T15:00:06;1.77;;;0.90;;
43919;SDS011;29578;51.946;5.874;2023-09-19T15:02:38;2.05;;;0.70;;
43919;SDS011;29578;51.946;5.874;2023-09-19T15:05:08;1.75;;;0.60;;
43919;SDS011;29578;51.946;5.874;2023-09-19T15:13:34;1.45;;;0.57;;
43919;SDS011;29578;51.946;5.874;2023-09-19T15:16:03;1.55;;;0.68;;
43919;SDS011;29578;51.946;5.874;2023-09-19T15:18:33;1.23;;;0.70;;
43919;SDS011;29578;51.946;5.874;2023-09-19T15:21:04;2.17;;;0.75;;
43919;SDS011;29578;51.946;5.874;2023-09-19T15:23:30;1.65;;;0.70;;
43919;SDS011;29578;51.946;5.874;2023-09-19T15:26:00;1.25;;;0.60;;
43919;SDS011;29578;51.946;5.874;2023-09-19T15:28:29;1.75;;;0.60;;
43919;SDS011;29578;51.946;5.874;2023-09-19T15:31:00;1.48;;;0.60;;
43919;SDS011;29578;51.946;5.874;2023-09-19T15:33:29;0.65;;;0.50;;
43919;SDS011;29578;51.946;5.874;2023-09-19T15:57:04;1.77;;;0.60;;
43919;SDS011;29578;51.946;5.874;2023-09-19T15:59:46;1.17;;;0.52;;
43919;SDS011;29578;51.946;5.874;2023-09-19T16:06:16;0.75;;;0.50;;
43919;SDS011;29578;51.946;5.874;2023-09-19T16:08:58;1.33;;;0.63;;
43919;SDS011;29578;51.946;5.874;2023-09-19T16:13:57;1.27;;;0.68;;
43919;SDS011;29578;51.946;5.874;2023-09-19T16:16:23;1.48;;;0.50;;
43919;SDS011;29578;51.946;5.874;2023-09-19T16:18:52;0.82;;;0.40;;
43919;SDS011;29578;51.946;5.874;2023-09-19T16:21:22;1.70;;;0.60;;
43919;SDS011;29578;51.946;5.874;2023-09-19T16:30:57;0.98;;;0.50;;
43919;SDS011;29578;51.946;5.874;2023-09-19T16:33:25;0.65;;;0.45;;
43919;SDS011;29578;51.946;5.874;2023-09-19T16:35:51;1.80;;;0.60;;
43919;SDS011;29578;51.946;5.874;2023-09-19T16:38:17;1.30;;;0.65;;
43919;SDS011;29578;51.946;5.874;2023-09-19T16:40:54;0.82;;;0.50;;
43919;SDS011;29578;51.946;5.874;2023-09-19T16:43:23;0.98;;;0.60;;
43919;SDS011;29578;51.946;5.874;2023-09-19T16:45:51;1.42;;;0.60;;
43919;SDS011;29578;51.946;5.874;2023-09-19T16:48:20;2.08;;;0.60;;
43919;SDS011;29578;51.946;5.874;2023-09-19T16:50:47;0.73;;;0.43;;
43919;SDS011;29578;51.946;5.874;2023-09-19T16:53:15;1.00;;;0.43;;
43919;SDS011;29578;51.946;5.874;2023-09-19T16:55:42;2.22;;;0.70;;
43919;SDS011;29578;51.946;5.874;2023-09-19T16:58:09;1.42;;;0.70;;
43919;SDS011;29578;51.946;5.874;2023-09-19T17:00:36;1.75;;;0.63;;
43919;SDS011;29578;51.946;5.874;2023-09-19T17:03:02;1.77;;;0.50;;
43919;SDS011;29578;51.946;5.874;2023-09-19T17:05:29;2.22;;;0.73;;
43919;SDS011;29578;51.946;5.874;2023-09-19T17:07:55;1.15;;;0.68;;
43919;SDS011;29578;51.946;5.874;2023-09-19T17:10:21;1.05;;;0.63;;
43919;SDS011;29578;51.946;5.874;2023-09-19T17:12:47;1.50;;;0.68;;
43919;SDS011;29578;51.946;5.874;2023-09-19T17:15:12;2.72;;;0.73;;
43919;SDS011;29578;51.946;5.874;2023-09-19T17:17:38;2.40;;;0.80;;
43919;SDS011;29578;51.946;5.874;2023-09-19T17:20:05;0.85;;;0.60;;
43919;SDS011;29578;51.946;5.874;2023-09-19T17:22:32;1.38;;;0.70;;
43919;SDS011;29578;51.946;5.874;2023-09-19T17:24:58;0.68;;;0.50;;
43919;SDS011;29578;51.946;5.874;2023-09-19T17:27:24;1.50;;;0.63;;
43919;SDS011;29578;51.946;5.874;2023-09-19T17:29:49;1.63;;;0.80;;
43919;SDS011;29578;51.946;5.874;2023-09-19T17:32:19;1.92;;;0.70;;
43919;SDS011;29578;51.946;5.874;2023-09-19T17:34:46;1.08;;;0.57;;
43919;SDS011;29578;51.946;5.874;2023-09-19T17:37:14;1.80;;;0.60;;
43919;SDS011;29578;51.946;5.874;2023-09-19T17:39:40;1.58;;;0.80;;
43919;SDS011;29578;51.946;5.874;2023-09-19T17:42:05;2.75;;;0.93;;
43919;SDS011;29578;51.946;5.874;2023-09-19T17:44:35;1.63;;;0.75;;
43919;SDS011;29578;51.946;5.874;2023-09-19T17:47:02;1.23;;;0.70;;
43919;SDS011;29578;51.946;5.874;2023-09-19T17:49:28;1.98;;;0.80;;
43919;SDS011;29578;51.946;5.874;2023-09-19T17:51:53;2.13;;;0.68;;
43919;SDS011;29578;51.946;5.874;2023-09-19T17:54:19;1.05;;;0.82;;
43919;SDS011;29578;51.946;5.874;2023-09-19T17:56:45;1.02;;;0.60;;
43919;SDS011;29578;51.946;5.874;2023-09-19T17:59:10;1.85;;;0.80;;
43919;SDS011;29578;51.946;5.874;2023-09-19T18:01:38;1.67;;;0.80;;
43919;SDS011;29578;51.946;5.874;2023-09-19T18:04:04;1.13;;;0.70;;
43919;SDS011;29578;51.946;5.874;2023-09-19T18:06:30;1.83;;;0.73;;
43919;SDS011;29578;51.946;5.874;2023-09-19T18:09:00;2.38;;;0.85;;
43919;SDS011;29578;51.946;5.874;2023-09-19T18:11:32;2.42;;;0.90;;
43919;SDS011;29578;51.946;5.874;2023-09-19T18:13:58;0.93;;;0.80;;
43919;SDS011;29578;51.946;5.874;2023-09-19T18:16:24;1.08;;;0.80;;
43919;SDS011;29578;51.946;5.874;2023-09-19T18:18:52;1.15;;;1.00;;
43919;SDS011;29578;51.946;5.874;2023-09-19T18:21:20;1.63;;;0.80;;
43919;SDS011;29578;51.946;5.874;2023-09-19T18:23:51;2.28;;;1.10;;
43919;SDS011;29578;51.946;5.874;2023-09-19T18:26:18;2.13;;;1.02;;
43919;SDS011;29578;51.946;5.874;2023-09-19T18:28:44;2.05;;;1.00;;
43919;SDS011;29578;51.946;5.874;2023-09-19T18:31:10;2.03;;;1.00;;
43919;SDS011;29578;51.946;5.874;2023-09-19T18:33:36;1.13;;;0.68;;
43919;SDS011;29578;51.946;5.874;2023-09-19T18:36:02;1.42;;;0.68;;
43919;SDS011;29578;51.946;5.874;2023-09-19T18:38:32;1.05;;;0.70;;
43919;SDS011;29578;51.946;5.874;2023-09-19T18:41:06;1.52;;;0.75;;
43919;SDS011;29578;51.946;5.874;2023-09-19T18:43:33;2.33;;;0.90;;
43919;SDS011;29578;51.946;5.874;2023-09-19T18:46:02;1.55;;;0.73;;
43919;SDS011;29578;51.946;5.874;2023-09-19T18:48:31;2.30;;;0.85;;
43919;SDS011;29578;51.946;5.874;2023-09-19T18:51:04;1.27;;;0.80;;
43919;SDS011;29578;51.946;5.874;2023-09-19T18:53:32;1.95;;;0.82;;
43919;SDS011;29578;51.946;5.874;2023-09-19T18:56:04;0.95;;;0.60;;
43919;SDS011;29578;51.946;5.874;2023-09-19T18:58:32;1.58;;;0.82;;
43919;SDS011;29578;51.946;5.874;2023-09-19T19:01:02;1.45;;;0.70;;
43919;SDS011;29578;51.946;5.874;2023-09-19T19:03:30;0.90;;;0.70;;
43919;SDS011;29578;51.946;5.874;2023-09-19T19:06:07;1.33;;;0.63;;
43919;SDS011;29578;51.946;5.874;2023-09-19T19:08:39;1.73;;;0.63;;
43919;SDS011;29578;51.946;5.874;2023-09-19T19:11:53;1.15;;;0.70;;
43919;SDS011;29578;51.946;5.874;2023-09-19T19:43:19;1.10;;;0.70;;
43919;SDS011;29578;51.946;5.874;2023-09-19T19:45:53;2.60;;;0.90;;
43919;SDS011;29578;51.946;5.874;2023-09-19T20:51:56;1.25;;;0.70;;